Shanklin, United Kingdom
Current Conditions -  °F | °C
As of 1:50 PM on Wednesday 28 Jan 2015 (Local Time) from EGHI Reporting Station
Few Clouds Few Clouds  
Wind Chill: 34°   Ceiling: Unl
Heat Index: 43°   Visibility: 6mi
Dew Point: 30°   Wind: 20mph
Humidity: 61%   Direction: 290°WNW
Pressure: 29.62"   Gusts: 32mph
Location:  50.63°N, 1.18°W
Report Text: EGHI 281350Z 29017G28KT 260V330 9999 FEW028 06/M01 Q1003
Loading
Personal Weather Stations






























Interactive Weather Map New forecast layout! Learn more

10-Day Weather Forecast

Advertisements
Track Severe Weather on mobile